Time;durP1;ratioP1;P1;durP2;ratioP2;P2;SDS_P1;SDS_P2;PMS_P1;PMS_P2;Temp;Humidity;BMP_temperature;BMP_pressure;BME280_temperature;BME280_humidity;BME280_pressure;Samples;Min_cycle;Max_cycle;Signal;HPM_P1;HPM_P2
2023/07/05 00:02:12;;;;;;;0.07;0.07;;;;;;;-144.59;100.00;63158.22;5105888;28;20221;-80
2023/07/05 00:04:42;;;;;;;0.10;0.10;;;;;;;-144.59;100.00;63158.22;5110449;28;20195;-79
2023/07/05 00:07:10;;;;;;;0.07;0.07;;;;;;;-144.59;100.00;63158.22;5108676;28;20264;-79
2023/07/05 00:09:39;;;;;;;0.10;0.10;;;;;;;-144.59;100.00;63158.22;5105297;28;20265;-79
2023/07/05 00:12:08;;;;;;;0.00;0.00;;;;;;;-144.59;100.00;63158.22;5111875;28;20202;-80
2023/07/05 00:14:36;;;;;;;0.10;0.10;;;;;;;-144.59;100.00;63158.22;5109751;28;20223;-79
2023/07/05 00:17:06;;;;;;;0.10;0.10;;;;;;;-144.59;100.00;63158.22;5104407;28;20225;-79
2023/07/05 00:19:35;;;;;;;0.10;0.10;;;;;;;-144.59;100.00;63158.22;5109533;28;20195;-80
2023/07/05 00:22:05;;;;;;;0.10;0.10;;;;;;;-144.59;100.00;63158.22;5114602;28;20202;-79
2023/07/05 00:24:36;;;;;;;0.10;0.10;;;;;;;-144.59;100.00;63158.22;5096460;28;20254;-79
2023/07/05 00:27:04;;;;;;;0.10;0.10;;;;;;;-144.59;100.00;63158.22;5086277;28;20209;-79
2023/07/05 00:29:33;;;;;;;0.10;0.10;;;;;;;-144.59;100.00;63158.22;5082972;28;20697;-80
2023/07/05 00:32:02;;;;;;;0.00;0.00;;;;;;;-144.59;100.00;63158.22;5084273;28;20206;-79
2023/07/05 00:34:31;;;;;;;0.10;0.10;;;;;;;-144.59;100.00;63158.22;5091196;28;20224;-79
2023/07/05 00:36:59;;;;;;;0.10;0.10;;;;;;;-144.59;100.00;63158.22;5086106;28;20197;-80
2023/07/05 00:39:30;;;;;;;0.10;0.10;;;;;;;-144.59;100.00;63158.22;5084175;28;20206;-79
2023/07/05 00:41:58;;;;;;;0.10;0.10;;;;;;;-144.59;100.00;63158.22;5083049;28;20245;-80
2023/07/05 00:44:28;;;;;;;0.00;0.00;;;;;;;-144.59;100.00;63158.22;5092306;28;20200;-79
2023/07/05 00:47:01;;;;;;;0.10;0.10;;;;;;;-144.59;100.00;63158.22;5089183;28;20184;-79
2023/07/05 00:49:34;;;;;;;0.10;0.10;;;;;;;-144.59;100.00;63158.22;5087335;28;20274;-79
2023/07/05 00:52:07;;;;;;;0.10;0.10;;;;;;;-144.59;100.00;63158.22;5085912;28;20317;-80
2023/07/05 00:54:44;;;;;;;0.03;0.03;;;;;;;-144.59;100.00;63158.22;5047635;28;20184;-80
2023/07/05 00:57:17;;;;;;;0.00;0.00;;;;;;;-144.59;100.00;63158.22;5093847;28;20171;-80
2023/07/05 00:59:52;;;;;;;0.10;0.10;;;;;;;-144.59;100.00;63158.22;5093352;28;20198;-79
2023/07/05 01:02:21;;;;;;;0.10;0.10;;;;;;;-144.59;100.00;63158.22;5092383;28;20176;-79
2023/07/05 01:04:50;;;;;;;0.10;0.10;;;;;;;-144.59;100.00;63158.22;5088855;28;20198;-79
2023/07/05 01:07:18;;;;;;;0.10;0.10;;;;;;;-144.59;100.00;63158.22;5087558;28;20245;-79
2023/07/05 01:09:49;;;;;;;0.10;0.10;;;;;;;-144.59;100.00;63158.22;5085531;28;20224;-79
2023/07/05 01:12:25;;;;;;;0.10;0.10;;;;;;;-144.59;100.00;63158.22;5093531;28;20220;-78
2023/07/05 01:15:01;;;;;;;0.10;0.10;;;;;;;-144.59;100.00;63158.22;5088466;28;20196;-79
2023/07/05 01:17:42;;;;;;;0.10;0.10;;;;;;;-144.59;100.00;63158.22;5085014;28;20223;-79
2023/07/05 01:20:32;;;;;;;0.10;0.10;;;;;;;-144.59;100.00;63158.22;5093304;28;20274;-79
2023/07/05 01:23:28;;;;;;;0.10;0.10;;;;;;;-144.59;100.00;63158.22;5085517;28;20220;-79
2023/07/05 01:29:15;;;;;;;0.10;0.10;;;;;;;18.49;100.00;98369.16;5131343;27;20588;-79
2023/07/05 01:32:05;;;;;;;0.10;0.10;;;;;;;18.36;100.00;98366.16;5131318;27;20186;-78
2023/07/05 01:34:42;;;;;;;0.10;0.10;;;;;;;18.17;100.00;98356.56;5127262;28;20191;-79
2023/07/05 01:37:24;;;;;;;0.10;0.10;;;;;;;18.22;100.00;98367.63;5130758;28;20198;-79
2023/07/05 01:39:52;;;;;;;0.10;0.10;;;;;;;18.15;100.00;98363.94;5130221;28;20181;-78
2023/07/05 01:42:34;;;;;;;0.10;0.10;;;;;;;18.07;100.00;98380.00;5131209;27;20219;-78
2023/07/05 01:45:05;;;;;;;0.10;0.10;;;;;;;18.01;100.00;98365.41;5108201;28;20241;-79
2023/07/05 01:47:42;;;;;;;0.10;0.10;;;;;;;17.97;100.00;98364.94;5105578;28;20731;-78
2023/07/05 01:50:21;;;;;;;0.10;0.10;;;;;;;17.95;100.00;98364.25;5105468;28;20187;-78
2023/07/05 01:53:01;;;;;;;0.10;0.10;;;;;;;17.96;100.00;98355.22;5108311;28;20191;-78
2023/07/05 01:55:37;;;;;;;0.10;0.10;;;;;;;17.83;100.00;98348.63;5106818;28;20309;-78
2023/07/05 01:58:13;;;;;;;0.10;0.10;;;;;;;17.74;100.00;98343.25;5099704;28;20175;-79
2023/07/05 02:00:46;;;;;;;0.10;0.10;;;;;;;17.71;100.00;98350.78;5105830;28;20720;-79
2023/07/05 02:03:20;;;;;;;0.00;0.00;;;;;;;17.57;100.00;98373.66;5085656;28;20284;-78
2023/07/05 02:05:50;;;;;;;0.10;0.10;;;;;;;17.54;100.00;98365.09;5103866;28;20259;-78
2023/07/05 02:08:19;;;;;;;0.00;0.00;;;;;;;17.29;100.00;98359.66;5101167;28;20215;-78
2023/07/05 02:10:48;;;;;;;0.10;0.10;;;;;;;17.41;100.00;98362.88;5100303;28;20232;-78
2023/07/05 02:13:18;;;;;;;0.10;0.10;;;;;;;17.41;100.00;98374.41;5102268;28;20673;-79
2023/07/05 02:15:50;;;;;;;0.10;0.10;;;;;;;17.37;100.00;98364.19;5058809;28;20184;-79
2023/07/05 02:18:25;;;;;;;0.00;0.00;;;;;;;17.35;100.00;98368.84;5105084;28;20198;-78
2023/07/05 02:20:54;;;;;;;0.10;0.10;;;;;;;17.34;100.00;98373.38;5100412;28;20203;-78
2023/07/05 02:23:23;;;;;;;0.10;0.10;;;;;;;17.31;100.00;98362.16;5129617;27;20190;-78
2023/07/05 02:25:57;;;;;;;0.10;0.10;;;;;;;17.24;100.00;98375.34;5109929;28;20202;-78
2023/07/05 02:28:25;;;;;;;0.10;0.10;;;;;;;17.19;100.00;98375.00;5125507;27;20226;-78
2023/07/05 02:30:54;;;;;;;0.10;0.10;;;;;;;17.18;100.00;98389.38;5120826;27;20225;-78
2023/07/05 02:33:25;;;;;;;0.10;0.10;;;;;;;17.11;100.00;98388.31;5091159;28;20194;-78
2023/07/05 02:35:55;;;;;;;0.10;0.10;;;;;;;17.06;100.00;98387.94;5125185;27;20182;-78
2023/07/05 02:38:24;;;;;;;0.10;0.10;;;;;;;17.11;100.00;98393.66;5120536;27;20703;-78
2023/07/05 02:40:52;;;;;;;0.10;0.10;;;;;;;17.15;100.00;98393.19;5104359;28;20274;-78
2023/07/05 02:43:21;;;;;;;0.10;0.10;;;;;;;17.10;100.00;98386.66;5108692;28;20679;-78
2023/07/05 02:45:50;;;;;;;0.10;0.10;;;;;;;17.13;100.00;98383.63;5110241;28;20199;-78
2023/07/05 02:48:20;;;;;;;0.10;0.10;;;;;;;17.17;100.00;98388.50;5111360;28;20219;-78
2023/07/05 02:50:51;;;;;;;0.10;0.10;;;;;;;17.04;100.00;98373.88;5115648;28;20262;-79
2023/07/05 02:53:20;;;;;;;0.10;0.10;;;;;;;17.06;100.00;98388.78;5113128;28;20222;-78
2023/07/05 02:55:48;;;;;;;0.10;0.10;;;;;;;17.10;100.00;98392.00;5109232;28;20209;-78
2023/07/05 02:58:17;;;;;;;0.10;0.10;;;;;;;17.06;100.00;98386.09;5115748;27;20199;-78
2023/07/05 03:00:46;;;;;;;0.10;0.10;;;;;;;17.10;100.00;98374.09;5094406;28;20700;-79
2023/07/05 03:03:21;;;;;;;0.10;0.10;;;;;;;17.15;100.00;98376.28;5118223;27;20210;-78
2023/07/05 03:06:01;;;;;;;0.10;0.10;;;;;;;17.02;100.00;98368.69;5112392;28;20727;-79
2023/07/05 03:08:32;;;;;;;0.10;0.10;;;;;;;16.91;100.00;98370.81;5105884;28;20676;-78
2023/07/05 03:11:03;;;;;;;0.10;0.10;;;;;;;16.90;100.00;98372.66;5103534;28;20205;-78
2023/07/05 03:13:35;;;;;;;0.10;0.10;;;;;;;16.90;100.00;98350.41;5111076;28;20199;-78
2023/07/05 03:16:05;;;;;;;0.10;0.10;;;;;;;16.89;100.00;98344.22;5110721;28;20274;-78
2023/07/05 03:18:34;;;;;;;0.10;0.10;;;;;;;16.83;100.00;98343.00;5108999;28;20191;-78
2023/07/05 03:21:04;;;;;;;0.10;0.10;;;;;;;16.80;100.00;98348.69;5104726;28;20202;-77
2023/07/05 03:23:32;;;;;;;0.10;0.10;;;;;;;16.82;100.00;98353.88;5107057;28;20191;-78
2023/07/05 03:26:02;;;;;;;0.10;0.10;;;;;;;16.82;100.00;98352.03;5113671;28;20190;-77
2023/07/05 03:28:33;;;;;;;0.10;0.10;;;;;;;16.87;100.00;98341.69;5113968;27;20223;-77
2023/07/05 03:31:04;;;;;;;0.10;0.10;;;;;;;16.75;100.00;98339.44;5115053;28;20194;-78
2023/07/05 03:33:34;;;;;;;0.10;0.10;;;;;;;16.74;100.00;98325.22;5079339;28;20195;-78
2023/07/05 03:36:07;;;;;;;0.10;0.10;;;;;;;16.77;100.00;98314.19;5114993;28;20205;-78
2023/07/05 03:38:37;;;;;;;0.10;0.10;;;;;;;16.71;100.00;98319.38;5109274;28;20396;-78
2023/07/05 03:41:12;;;;;;;0.10;0.10;;;;;;;16.63;100.00;98319.28;5108492;28;20203;-78
2023/07/05 03:43:42;;;;;;;0.10;0.10;;;;;;;16.64;100.00;98331.66;5092633;28;20195;-77
2023/07/05 03:46:12;;;;;;;0.10;0.10;;;;;;;16.67;100.00;98326.81;5109086;28;20229;-78
2023/07/05 03:48:42;;;;;;;0.10;0.10;;;;;;;16.70;100.00;98333.75;5111694;28;20648;-78
2023/07/05 03:51:16;;;;;;;0.10;0.10;;;;;;;16.55;100.00;98326.25;5113421;28;20199;-78
2023/07/05 03:53:50;;;;;;;0.10;0.10;;;;;;;16.65;100.00;98328.81;5108365;27;20230;-78
2023/07/05 03:56:21;;;;;;;0.10;0.10;;;;;;;16.58;100.00;98333.94;5113690;28;20294;-77
2023/07/05 03:58:51;;;;;;;0.10;0.10;;;;;;;16.63;100.00;98344.19;5109329;28;20203;-78
2023/07/05 04:01:21;;;;;;;0.10;0.10;;;;;;;16.59;100.00;98354.31;5069013;28;20192;-78
2023/07/05 04:03:52;;;;;;;0.10;0.10;;;;;;;16.67;100.00;98358.91;5071937;28;20189;-78
2023/07/05 04:06:24;;;;;;;0.10;0.10;;;;;;;16.65;100.00;98363.56;5068115;28;20204;-78
2023/07/05 04:08:52;;;;;;;0.10;0.10;;;;;;;16.73;100.00;98362.81;5068945;28;20298;-78
2023/07/05 04:11:22;;;;;;;0.10;0.10;;;;;;;16.74;100.00;98365.34;5027919;28;20210;-78
2023/07/05 04:13:52;;;;;;;0.10;0.10;;;;;;;16.74;100.00;98364.50;5031478;28;20197;-78
2023/07/05 04:16:24;;;;;;;0.10;0.10;;;;;;;16.72;100.00;98374.53;5028984;28;20222;-78
2023/07/05 04:19:02;;;;;;;0.10;0.10;;;;;;;16.76;100.00;98370.53;5042837;28;20210;-78
2023/07/05 04:21:32;;;;;;;0.10;0.10;;;;;;;16.84;100.00;98373.25;5087904;28;20226;-78
2023/07/05 04:24:04;;;;;;;0.10;0.10;;;;;;;16.88;100.00;98363.91;5086220;28;20196;-78
2023/07/05 04:26:32;;;;;;;0.10;0.10;;;;;;;16.93;100.00;98369.66;5085761;28;20206;-78
2023/07/05 04:29:01;;;;;;;0.10;0.10;;;;;;;16.96;100.00;98361.28;5084131;28;20218;-78
2023/07/05 04:31:31;;;;;;;0.10;0.10;;;;;;;16.99;100.00;98368.19;5090883;28;20195;-79
2023/07/05 04:34:01;;;;;;;0.10;0.10;;;;;;;16.98;100.00;98358.44;5090658;28;20302;-78
2023/07/05 04:36:30;;;;;;;0.10;0.10;;;;;;;17.11;100.00;98370.44;5094247;28;20229;-78
2023/07/05 04:39:01;;;;;;;0.10;0.10;;;;;;;17.11;100.00;98370.44;5110328;28;20197;-78
2023/07/05 04:41:31;;;;;;;0.10;0.10;;;;;;;17.14;100.00;98370.09;5112818;28;20206;-78
2023/07/05 04:43:59;;;;;;;0.10;0.10;;;;;;;17.14;100.00;98364.75;5106422;28;20205;-78
2023/07/05 04:46:28;;;;;;;0.10;0.10;;;;;;;17.17;100.00;98368.94;5101034;28;20252;-78
2023/07/05 04:48:56;;;;;;;0.10;0.10;;;;;;;17.21;100.00;98364.13;5113227;28;20219;-78
2023/07/05 04:51:25;;;;;;;0.10;0.10;;;;;;;17.23;100.00;98365.63;5109327;28;20266;-78
2023/07/05 04:53:53;;;;;;;0.10;0.10;;;;;;;17.22;100.00;98371.16;5107209;28;20308;-78
2023/07/05 04:56:23;;;;;;;0.10;0.10;;;;;;;17.29;100.00;98367.69;5108691;28;20191;-78
2023/07/05 04:58:52;;;;;;;0.10;0.10;;;;;;;17.36;100.00;98370.53;5111580;28;20190;-78
2023/07/05 05:01:20;;;;;;;0.10;0.10;;;;;;;17.41;100.00;98368.22;5108637;28;20205;-78
2023/07/05 05:03:50;;;;;;;0.10;0.10;;;;;;;17.38;100.00;98389.97;5107930;28;20199;-78
2023/07/05 05:06:18;;;;;;;0.00;0.00;;;;;;;17.32;100.00;98372.69;5108306;28;20199;-78
2023/07/05 05:08:47;;;;;;;0.10;0.10;;;;;;;17.40;100.00;98390.66;5113398;28;20213;-78
2023/07/05 05:11:15;;;;;;;0.10;0.10;;;;;;;17.45;100.00;98386.47;5112080;28;20203;-78
2023/07/05 05:13:45;;;;;;;0.10;0.10;;;;;;;17.40;100.00;98382.63;5088249;28;20187;-78
2023/07/05 05:16:13;;;;;;;0.10;0.10;;;;;;;17.54;100.00;98382.00;5090891;28;20187;-78
2023/07/05 05:18:43;;;;;;;0.10;0.10;;;;;;;17.53;100.00;98388.34;5090896;28;20219;-77
2023/07/05 05:21:11;;;;;;;0.10;0.10;;;;;;;17.56;100.00;98396.06;5092212;28;20201;-78
2023/07/05 05:23:40;;;;;;;0.10;0.10;;;;;;;17.60;100.00;98408.13;5088122;28;20204;-78
2023/07/05 05:26:10;;;;;;;0.10;0.10;;;;;;;17.59;100.00;98406.47;5085444;28;20191;-78
2023/07/05 05:28:39;;;;;;;0.10;0.10;;;;;;;17.58;100.00;98409.31;5090391;28;20251;-79
2023/07/05 05:31:12;;;;;;;0.10;0.10;;;;;;;17.69;100.00;98423.28;5086200;28;20281;-78
2023/07/05 05:33:40;;;;;;;0.10;0.10;;;;;;;17.63;100.00;98410.47;5112918;28;20195;-78
2023/07/05 05:36:08;;;;;;;0.10;0.10;;;;;;;17.65;100.00;98408.47;5113230;28;20191;-78
2023/07/05 05:38:39;;;;;;;0.10;0.10;;;;;;;17.67;100.00;98406.50;5108663;28;20191;-78
2023/07/05 05:41:10;;;;;;;0.10;0.10;;;;;;;17.58;100.00;98402.09;5110851;28;20199;-78
2023/07/05 05:43:39;;;;;;;0.00;0.00;;;;;;;17.69;100.00;98411.69;5107642;28;20202;-79
2023/07/05 05:46:09;;;;;;;0.10;0.10;;;;;;;17.68;100.00;98408.19;5106529;28;20187;-78
2023/07/05 05:48:40;;;;;;;0.07;0.07;;;;;;;17.71;100.00;98401.69;5109421;28;20766;-78
2023/07/05 05:51:09;;;;;;;0.10;0.10;;;;;;;17.83;100.00;98403.06;5109673;28;20226;-79
2023/07/05 05:53:37;;;;;;;0.10;0.10;;;;;;;17.84;100.00;98407.41;5112785;28;20269;-78
2023/07/05 05:56:05;;;;;;;0.10;0.10;;;;;;;17.93;100.00;98405.59;5109573;28;20231;-78
2023/07/05 05:58:34;;;;;;;0.10;0.10;;;;;;;17.99;100.00;98386.19;5111912;28;20236;-78
2023/07/05 06:01:03;;;;;;;0.10;0.10;;;;;;;18.11;100.00;98381.34;5109929;28;20209;-78
2023/07/05 06:03:33;;;;;;;0.10;0.10;;;;;;;18.34;100.00;98386.94;5112861;28;20195;-78
2023/07/05 06:06:02;;;;;;;0.10;0.10;;;;;;;18.53;100.00;98382.06;5105725;28;20195;-78
2023/07/05 06:08:32;;;;;;;0.10;0.10;;;;;;;18.52;100.00;98382.22;5107911;28;20195;-78
2023/07/05 06:11:03;;;;;;;0.10;0.10;;;;;;;18.38;100.00;98351.56;5107704;28;20218;-77
2023/07/05 06:13:32;;;;;;;0.00;0.00;;;;;;;18.51;100.00;98364.44;5118219;27;20202;-78
2023/07/05 06:16:03;;;;;;;0.10;0.10;;;;;;;18.49;100.00;98356.56;5116292;27;20191;-78
2023/07/05 06:18:43;;;;;;;0.10;0.10;;;;;;;18.52;100.00;98366.97;5118925;27;20273;-78
2023/07/05 06:24:07;;;;;;;0.10;0.10;;;;;;;18.36;100.00;98360.78;5097586;28;20187;-77
2023/07/05 06:26:35;;;;;;;0.10;0.10;;;;;;;18.20;100.00;98356.25;5115228;28;20845;-77
2023/07/05 06:29:08;;;;;;;0.10;0.10;;;;;;;18.08;100.00;98371.81;5116282;28;20216;-78
2023/07/05 06:31:46;;;;;;;0.10;0.10;;;;;;;18.09;100.00;98369.97;5114916;28;20202;-78
2023/07/05 06:34:16;;;;;;;0.10;0.10;;;;;;;17.99;100.00;98376.31;5115230;28;20642;-78
2023/07/05 06:36:45;;;;;;;0.10;0.10;;;;;;;17.72;100.00;98392.63;5113830;28;20294;-77
2023/07/05 06:39:15;;;;;;;0.10;0.10;;;;;;;17.73;100.00;98386.28;5113420;28;20209;-78
2023/07/05 06:41:45;;;;;;;0.10;0.10;;;;;;;17.70;100.00;98382.09;5111743;28;20184;-77
2023/07/05 06:44:13;;;;;;;0.10;0.10;;;;;;;17.70;100.00;98402.69;5112541;28;20191;-78
2023/07/05 06:46:43;;;;;;;0.10;0.10;;;;;;;17.56;100.00;98393.38;5113120;28;20187;-78
2023/07/05 06:49:12;;;;;;;0.10;0.10;;;;;;;17.73;100.00;98397.84;5114312;28;20194;-78
2023/07/05 06:51:42;;;;;;;0.10;0.10;;;;;;;17.57;100.00;98403.13;5112895;28;20274;-78
2023/07/05 06:54:10;;;;;;;0.10;0.10;;;;;;;17.38;100.00;98401.53;5109363;28;20192;-77
2023/07/05 06:56:39;;;;;;;0.10;0.10;;;;;;;17.41;100.00;98403.03;5115346;27;20210;-77
2023/07/05 06:59:07;;;;;;;0.10;0.10;;;;;;;17.46;100.00;98433.66;5113586;28;20234;-77
2023/07/05 07:01:36;;;;;;;0.10;0.10;;;;;;;17.74;100.00;98425.44;5112748;28;20195;-77
2023/07/05 07:04:05;;;;;;;0.10;0.10;;;;;;;17.78;100.00;98432.19;5117253;27;20195;-78
2023/07/05 07:06:35;;;;;;;0.10;0.10;;;;;;;17.81;100.00;98431.00;5114976;27;20219;-78
2023/07/05 07:09:08;;;;;;;0.10;0.10;;;;;;;17.52;100.00;98450.09;5113751;28;20258;-78
2023/07/05 07:11:38;;;;;;;0.10;0.10;;;;;;;17.48;100.00;98441.56;5112821;28;20294;-78
2023/07/05 07:14:07;;;;;;;0.10;0.10;;;;;;;17.32;100.00;98444.97;5115267;27;20191;-78
2023/07/05 07:16:35;;;;;;;0.10;0.10;;;;;;;17.56;100.00;98448.78;5108532;28;20266;-78
2023/07/05 07:19:04;;;;;;;0.10;0.10;;;;;;;17.49;100.00;98448.59;5115201;28;20191;-78
2023/07/05 07:21:33;;;;;;;0.10;0.10;;;;;;;17.48;100.00;98460.31;5113696;28;20198;-78
2023/07/05 07:24:01;;;;;;;0.10;0.10;;;;;;;17.23;100.00;98467.34;5110308;28;20214;-77
2023/07/05 07:26:32;;;;;;;0.10;0.10;;;;;;;17.08;100.00;98487.63;5113594;28;20281;-78
2023/07/05 07:29:01;;;;;;;0.07;0.07;;;;;;;17.34;100.00;98475.09;5115290;28;20210;-79
2023/07/05 07:31:32;;;;;;;0.10;0.10;;;;;;;17.61;100.00;98476.75;5114749;28;20211;-77
2023/07/05 07:34:02;;;;;;;0.10;0.10;;;;;;;17.30;100.00;98473.75;5096409;28;20199;-78
2023/07/05 07:36:33;;;;;;;0.10;0.10;;;;;;;17.38;100.00;98479.16;5109566;28;20199;-78
2023/07/05 07:39:02;;;;;;;0.10;0.10;;;;;;;17.21;100.00;98490.75;5109339;28;20267;-78
2023/07/05 07:41:34;;;;;;;0.10;0.10;;;;;;;17.18;100.00;98485.72;5111526;27;20191;-78
2023/07/05 07:44:06;;;;;;;0.10;0.10;;;;;;;17.08;100.00;98490.28;5114931;28;20195;-78
2023/07/05 07:46:37;;;;;;;0.10;0.10;;;;;;;17.25;100.00;98502.81;5114973;28;20195;-78
2023/07/05 07:49:08;;;;;;;0.10;0.10;;;;;;;17.27;100.00;98502.66;5114495;28;20198;-78
2023/07/05 07:51:44;;;;;;;0.10;0.10;;;;;;;17.16;100.00;98517.97;5106459;28;20223;-78
2023/07/05 07:54:20;;;;;;;0.10;0.10;;;;;;;17.12;100.00;98495.19;5108613;28;20195;-78
2023/07/05 07:57:18;;;;;;;0.10;0.10;;;;;;;17.64;100.00;98521.97;5114419;28;20205;-78
2023/07/05 07:59:59;;;;;;;0.10;0.10;;;;;;;17.16;100.00;98507.25;5109518;28;20188;-78
2023/07/05 08:02:30;;;;;;;0.00;0.00;;;;;;;17.34;100.00;98504.53;5111748;28;20202;-78
2023/07/05 08:05:03;;;;;;;0.10;0.10;;;;;;;17.12;99.54;98516.59;5111205;28;20202;-78
2023/07/05 08:07:32;;;;;;;0.00;0.00;;;;;;;17.38;96.65;98535.38;5108712;28;20199;-79
2023/07/05 08:10:01;;;;;;;0.10;0.10;;;;;;;17.61;97.97;98516.09;5111809;28;20225;-78
2023/07/05 08:12:34;;;;;;;0.10;0.10;;;;;;;17.35;92.43;98482.13;5106471;28;20195;-78
2023/07/05 08:15:03;;;;;;;0.10;0.10;;;;;;;17.34;94.39;98549.22;5116543;27;20183;-78
2023/07/05 08:17:32;;;;;;;0.10;0.10;;;;;;;17.09;91.16;98543.69;5114230;28;20295;-78
2023/07/05 08:20:02;;;;;;;0.10;0.10;;;;;;;17.61;92.17;98558.94;5104661;28;20327;-78
2023/07/05 08:22:30;;;;;;;0.10;0.10;;;;;;;17.23;91.70;98557.50;5113654;28;20274;-78
2023/07/05 08:24:59;;;;;;;0.10;0.10;;;;;;;17.36;92.14;98552.56;5103283;28;20202;-78
2023/07/05 08:27:28;;;;;;;0.10;0.10;;;;;;;17.50;89.16;98551.19;5106004;28;20230;-78
2023/07/05 08:29:58;;;;;;;0.10;0.10;;;;;;;17.48;89.71;98542.47;5110675;28;20227;-78
2023/07/05 08:32:27;;;;;;;0.10;0.10;;;;;;;17.55;87.63;98556.88;5113509;28;20223;-78
2023/07/05 08:34:58;;;;;;;0.10;0.10;;;;;;;17.37;85.24;98576.53;5114010;28;20191;-78
2023/07/05 08:37:27;;;;;;;0.10;0.10;;;;;;;17.50;86.46;98589.50;5107032;28;20240;-78
2023/07/05 08:39:56;;;;;;;0.10;0.10;;;;;;;17.49;87.29;98569.09;5110763;28;20277;-78
2023/07/05 08:42:42;;;;;;;0.10;0.10;;;;;;;17.29;87.70;98583.66;5110088;28;20191;-78
2023/07/05 08:45:20;;;;;;;0.07;0.07;;;;;;;16.86;89.66;98578.06;5113486;28;20194;-78
2023/07/05 08:47:55;;;;;;;0.00;0.00;;;;;;;17.03;91.50;98586.25;5014148;28;20251;-78
2023/07/05 08:50:29;;;;;;;0.10;0.10;;;;;;;17.25;89.96;98592.97;5050917;28;20283;-78
2023/07/05 08:53:09;;;;;;;0.10;0.10;;;;;;;17.28;88.27;98598.88;5045834;28;20204;-78
2023/07/05 08:55:56;;;;;;;0.10;0.10;;;;;;;17.62;88.64;98601.63;5009900;28;20271;-78
2023/07/05 08:58:28;;;;;;;0.10;0.10;;;;;;;17.89;88.82;98598.00;5011170;28;20206;-78
2023/07/05 09:01:03;;;;;;;0.10;0.10;;;;;;;17.78;85.65;98594.75;5002001;28;20653;-78
2023/07/05 09:03:33;;;;;;;0.10;0.10;;;;;;;17.56;86.13;98614.81;5009291;28;20692;-78
2023/07/05 09:06:22;;;;;;;0.00;0.00;;;;;;;17.34;89.43;98616.13;5007276;28;20206;-78
2023/07/05 09:09:07;;;;;;;0.10;0.10;;;;;;;17.32;90.70;98599.41;5007035;28;20201;-78
2023/07/05 09:11:48;;;;;;;0.10;0.10;;;;;;;17.37;91.22;98616.69;5014863;28;20322;-78
2023/07/05 09:14:25;;;;;;;0.10;0.10;;;;;;;17.43;91.37;98625.94;5095195;28;20187;-78
2023/07/05 09:17:00;;;;;;;0.10;0.10;;;;;;;17.83;88.95;98605.81;5113579;27;20187;-78
2023/07/05 09:19:44;;;;;;;0.10;0.10;;;;;;;18.12;90.46;98611.69;5106550;28;20237;-78
2023/07/05 09:22:18;;;;;;;0.10;0.10;;;;;;;18.04;85.68;98635.75;5110370;28;20233;-78
2023/07/05 09:24:47;;;;;;;0.10;0.10;;;;;;;17.58;87.49;98669.06;5106492;28;20202;-78
2023/07/05 09:27:20;;;;;;;0.00;0.00;;;;;;;17.64;90.08;98626.41;5105937;28;20229;-78
2023/07/05 09:29:53;;;;;;;0.00;0.00;;;;;;;17.86;90.73;98649.25;5107825;28;20179;-78
2023/07/05 09:32:29;;;;;;;0.10;0.10;;;;;;;18.07;90.42;98638.16;5110197;28;20211;-78
2023/07/05 09:35:00;;;;;;;0.00;0.00;;;;;;;18.38;92.45;98648.34;5107461;28;20222;-78
2023/07/05 09:37:32;;;;;;;0.10;0.10;;;;;;;17.68;89.30;98635.84;5107043;28;20199;-78
2023/07/05 09:40:15;;;;;;;0.10;0.10;;;;;;;17.90;91.13;98645.22;5061169;28;20192;-78
2023/07/05 09:42:48;;;;;;;0.10;0.10;;;;;;;18.22;89.33;98646.44;5061910;28;20198;-78
2023/07/05 09:45:17;;;;;;;0.10;0.10;;;;;;;18.30;86.40;98641.94;5061366;28;20200;-78
2023/07/05 09:47:56;;;;;;;0.10;0.10;;;;;;;17.86;86.71;98675.19;5070391;28;20504;-78
2023/07/05 09:50:24;;;;;;;0.10;0.10;;;;;;;17.66;89.36;98659.28;5029010;28;20325;-78
2023/07/05 09:52:58;;;;;;;0.10;0.10;;;;;;;17.74;91.10;98675.41;5028752;28;20213;-78
2023/07/05 09:55:27;;;;;;;0.10;0.10;;;;;;;17.98;92.01;98666.72;5030124;28;20197;-78
2023/07/05 09:57:59;;;;;;;0.10;0.10;;;;;;;17.97;90.55;98662.38;5029251;28;20225;-78
2023/07/05 10:00:33;;;;;;;0.10;0.10;;;;;;;17.91;89.60;98686.25;5028935;28;20193;-79
2023/07/05 10:03:10;;;;;;;0.10;0.10;;;;;;;17.78;92.37;98667.94;5027044;28;20223;-79
2023/07/05 10:05:40;;;;;;;0.10;0.10;;;;;;;17.93;92.80;98669.03;5069888;28;20192;-78
2023/07/05 10:08:16;;;;;;;0.10;0.10;;;;;;;18.28;94.14;98660.03;5068950;28;20747;-78
2023/07/05 10:10:48;;;;;;;0.10;0.10;;;;;;;18.33;90.52;98672.97;5068833;28;20226;-78
2023/07/05 10:13:20;;;;;;;0.10;0.10;;;;;;;18.54;87.53;98670.75;5071256;28;20213;-78
2023/07/05 10:15:52;;;;;;;0.10;0.10;;;;;;;18.67;86.70;98680.22;5073728;28;20189;-79
2023/07/05 10:18:28;;;;;;;0.10;0.10;;;;;;;18.63;85.98;98676.16;5063732;28;20287;-79
2023/07/05 10:20:59;;;;;;;0.10;0.10;;;;;;;18.10;86.31;98661.09;5079655;28;20227;-78
2023/07/05 10:23:30;;;;;;;0.10;0.10;;;;;;;18.21;89.60;98683.13;5115291;27;20274;-78
2023/07/05 10:26:02;;;;;;;0.10;0.10;;;;;;;17.97;90.21;98670.41;5115116;28;20195;-78
2023/07/05 10:28:35;;;;;;;0.10;0.10;;;;;;;17.98;89.72;98669.41;5110338;28;20704;-78
2023/07/05 10:31:05;;;;;;;0.00;0.00;;;;;;;18.03;90.14;98696.56;5116183;28;20278;-78
2023/07/05 10:33:37;;;;;;;0.00;0.00;;;;;;;18.11;88.65;98703.00;5094352;28;20217;-78
2023/07/05 10:36:14;;;;;;;0.10;0.10;;;;;;;18.20;87.65;98694.00;5110647;28;20202;-78
2023/07/05 10:38:47;;;;;;;0.10;0.10;;;;;;;18.63;84.93;98708.34;5115014;28;20218;-78
2023/07/05 10:41:25;;;;;;;0.10;0.10;;;;;;;18.47;84.40;98698.34;5115051;28;20795;-78
2023/07/05 10:44:02;;;;;;;0.10;0.10;;;;;;;18.84;84.88;98696.22;5115806;28;20183;-79
2023/07/05 10:46:32;;;;;;;0.10;0.10;;;;;;;18.64;81.25;98708.19;5114439;28;20194;-78
2023/07/05 10:49:05;;;;;;;0.10;0.10;;;;;;;18.39;80.67;98699.16;5116167;28;20285;-79
2023/07/05 10:51:39;;;;;;;0.10;0.10;;;;;;;18.24;84.21;98723.03;5110457;28;20176;-78
2023/07/05 10:54:18;;;;;;;0.10;0.10;;;;;;;18.35;86.76;98713.88;5114364;28;20193;-78
2023/07/05 10:56:48;;;;;;;0.10;0.10;;;;;;;18.13;89.19;98717.06;5110616;28;20191;-78
2023/07/05 10:59:26;;;;;;;0.10;0.10;;;;;;;18.54;89.83;98719.03;5112810;28;20199;-78
2023/07/05 11:02:08;;;;;;;0.10;0.10;;;;;;;18.60;85.34;98712.16;5111503;28;20255;-78
2023/07/05 11:04:43;;;;;;;0.10;0.10;;;;;;;19.22;78.83;98728.88;5113411;28;20218;-79
2023/07/05 11:07:12;;;;;;;0.10;0.10;;;;;;;19.20;71.92;98697.81;5049323;28;20201;-78
2023/07/05 11:09:41;;;;;;;0.10;0.10;;;;;;;19.40;64.28;98713.50;5050658;28;20234;-78
2023/07/05 11:12:18;;;;;;;0.07;0.07;;;;;;;19.36;65.54;98719.34;5052369;28;20235;-78
2023/07/05 11:14:48;;;;;;;0.10;0.10;;;;;;;19.39;66.01;98689.47;5053164;28;21143;-79
2023/07/05 11:17:27;;;;;;;0.10;0.10;;;;;;;19.46;63.67;98690.47;5050155;28;20193;-79
2023/07/05 11:19:58;;;;;;;0.10;0.10;;;;;;;19.47;66.81;98713.66;5053593;28;20204;-78
2023/07/05 11:22:44;;;;;;;0.10;0.10;;;;;;;18.92;67.50;98698.09;5049075;28;20276;-78
2023/07/05 11:25:20;;;;;;;0.03;0.03;;;;;;;18.82;68.69;98705.44;5077322;28;20199;-78
2023/07/05 11:27:56;;;;;;;0.10;0.10;;;;;;;18.67;72.33;98715.09;5112954;28;20230;-78
2023/07/05 11:30:45;;;;;;;0.10;0.10;;;;;;;19.31;69.54;98713.63;5114668;28;20195;-78
2023/07/05 11:33:17;;;;;;;0.10;0.10;;;;;;;20.03;67.02;98706.66;5115692;28;20278;-79
2023/07/05 11:35:49;;;;;;;0.10;0.10;;;;;;;19.73;62.37;98706.31;5114121;28;20201;-78
2023/07/05 11:39:05;;;;;;;0.10;0.10;;;;;;;20.05;58.72;98730.69;5116485;28;20270;-79
2023/07/05 11:41:37;;;;;;;0.10;0.10;;;;;;;20.42;58.70;98724.75;5085796;27;20195;-78
2023/07/05 11:44:23;;;;;;;0.10;0.10;;;;;;;19.72;59.13;98711.88;5110914;28;20199;-78
2023/07/05 11:46:52;;;;;;;0.10;0.10;;;;;;;20.28;55.52;98732.53;5114894;28;20199;-78
2023/07/05 11:49:34;;;;;;;0.10;0.10;;;;;;;20.32;56.57;98716.88;5114818;28;20290;-78
2023/07/05 11:52:12;;;;;;;0.10;0.10;;;;;;;20.67;58.14;98720.19;5114654;28;20210;-79
2023/07/05 11:54:51;;;;;;;0.00;0.00;;;;;;;20.33;57.75;98715.84;5112465;28;20191;-79
2023/07/05 11:57:20;;;;;;;0.10;0.10;;;;;;;20.40;59.44;98734.84;5113299;28;20226;-78